Airfield :
LOGIN :

Register | Disclaimer

   EN    FR    IT 

 










Legend :    VFR   Marginal VFR   IFR   Intensive IFR   Very Intensive IFR
Visi :
Ceiling :
>= 8 km
>= 3000ft
5 to 8 km
1000 to 3000 ft
1500m to 5 km
500 to 1000 ft
800 to 1500m
200 to 500 ft
< 800m
< 200 ft
Symbols :   Thunderstorms  Fog  Heavy snow  Heavy precipitations  Wind > 20 kt
SIGMETs :     Misc.  Thunderstorms  Icing  Turbulence  Mountain Waves  Volcanic Ashes






- Airport Elevation : 1895 ft


LSMM - Meiringen

CURRENT METAR :
  • 300320Z AUTO 12006KT 9999NDV SCT030 OVC047 05/05 Q1018 RMK

EXPIRED METARs :
  • 300250Z AUTO 11005KT 9999NDV FEW031 BKN045 OVC051 04/04 Q1018 RMK
  • 300220Z AUTO 11004KT 060V140 9999NDV SCT028 BKN037 OVC047 04/04 Q1018 RMK
  • 300150Z AUTO 12005KT 050V150 9999NDV SCT026 BKN037 OVC052 04/04 Q1018 RMK
  • 300120Z AUTO 11004KT 9999NDV -DZ FEW033 BKN044 OVC051 04/04 Q1018 RMK

Expired Forecast.



MET'MAP, your aeronautical weather chart ! - Copyright ORBIFLY December 2007 - Disclaimer

ORBIFLY MET'MAP TEAM :

Programming & Development : Alexandra Zaïnal
Original concept : Baudouin d'Aumeries
Technical & hardware support : Manuel Goepfert
Assistance : Marc-Olivier Méhu




SOURCES & CREDITS :

   NOAA